createdAt,value
2022-09-09T00:00:40.171Z,5.10
2022-09-09T00:01:40.186Z,5.60
2022-09-09T00:02:40.333Z,4.70
2022-09-09T00:03:40.369Z,4.70
2022-09-09T00:04:40.229Z,6.50
2022-09-09T00:05:40.243Z,6.30
2022-09-09T00:06:40.275Z,5.90
2022-09-09T00:07:40.273Z,5.10
2022-09-09T00:08:40.286Z,5.80
2022-09-09T00:09:40.300Z,5.50
2022-09-09T00:10:40.318Z,5.50
2022-09-09T00:11:40.329Z,6.10
2022-09-09T00:12:40.346Z,5.00
2022-09-09T00:13:40.358Z,5.50
2022-09-09T00:14:40.374Z,5.20
2022-09-09T00:15:40.445Z,5.50
2022-09-09T00:16:40.400Z,6.10
2022-09-09T00:17:40.416Z,4.80
2022-09-09T00:18:40.432Z,5.60
2022-09-09T00:19:40.446Z,6.20
2022-09-09T00:20:40.456Z,4.70
2022-09-09T00:21:40.473Z,5.60
2022-09-09T00:22:41.312Z,4.40
2022-09-09T00:23:40.506Z,6.30
2022-09-09T00:24:40.516Z,5.50
2022-09-09T00:25:40.529Z,5.40
2022-09-09T00:26:40.544Z,5.90
2022-09-09T00:27:40.560Z,7.20
2022-09-09T00:28:40.575Z,6.00
2022-09-09T00:29:40.589Z,4.80
2022-09-09T00:30:40.633Z,6.20
2022-09-09T00:31:40.617Z,5.90
2022-09-09T00:32:40.643Z,5.60
2022-09-09T00:33:40.645Z,5.00
2022-09-09T00:34:40.658Z,4.50
2022-09-09T00:35:40.682Z,6.20
2022-09-09T00:36:40.689Z,5.20
2022-09-09T00:37:40.701Z,5.60
2022-09-09T00:38:40.736Z,5.40
2022-09-09T00:39:40.853Z,6.20
2022-09-09T00:40:40.745Z,5.80
2022-09-09T00:41:40.760Z,5.40
2022-09-09T00:42:40.775Z,5.70
2022-09-09T00:43:40.791Z,5.80
2022-09-09T00:44:40.807Z,6.20
2022-09-09T00:45:40.817Z,5.30
2022-09-09T00:46:40.833Z,5.30
2022-09-09T00:47:40.846Z,6.90
2022-09-09T00:48:40.861Z,7.40
2022-09-09T00:49:40.876Z,5.10
2022-09-09T00:50:40.890Z,5.80
2022-09-09T00:51:40.904Z,5.40
2022-09-09T00:52:40.917Z,6.50
2022-09-09T00:53:40.932Z,5.70
2022-09-09T00:54:40.968Z,6.10
2022-09-09T00:55:40.961Z,5.90
2022-09-09T00:56:40.977Z,6.80
2022-09-09T00:57:40.994Z,5.50
2022-09-09T00:58:41.003Z,6.50
2022-09-09T00:59:41.018Z,5.20
2022-09-09T01:00:41.034Z,6.00
2022-09-09T01:01:41.117Z,7.10
2022-09-09T01:02:41.188Z,6.60
2022-09-09T01:03:41.077Z,7.40
2022-09-09T01:04:41.089Z,7.40
2022-09-09T01:05:41.107Z,7.90
2022-09-09T01:06:41.120Z,6.70
2022-09-09T01:07:41.134Z,7.40
2022-09-09T01:08:41.147Z,7.90
2022-09-09T01:09:41.164Z,7.30
2022-09-09T01:10:41.198Z,6.20
2022-09-09T01:11:41.395Z,7.50
2022-09-09T01:12:41.206Z,7.50
2022-09-09T01:13:41.221Z,7.30
2022-09-09T01:14:41.234Z,7.50
2022-09-09T01:15:41.248Z,6.20
2022-09-09T01:16:41.323Z,7.20
2022-09-09T01:17:41.277Z,7.70
2022-09-09T01:18:41.291Z,7.20
2022-09-09T01:19:41.305Z,9.60
2022-09-09T01:20:41.320Z,7.90
2022-09-09T01:21:41.336Z,10.20
2022-09-09T01:22:41.348Z,9.00
2022-09-09T01:23:41.364Z,9.40
2022-09-09T01:24:41.377Z,6.90
2022-09-09T01:25:41.391Z,8.90
2022-09-09T01:26:41.426Z,8.80
2022-09-09T01:27:41.421Z,8.70
2022-09-09T01:28:41.434Z,7.00
2022-09-09T01:29:41.452Z,7.60
2022-09-09T01:30:41.529Z,7.00
2022-09-09T01:31:41.477Z,8.60
2022-09-09T01:32:41.492Z,8.70
2022-09-09T01:33:41.507Z,7.70
2022-09-09T01:34:41.519Z,8.60
2022-09-09T01:35:41.538Z,7.10
2022-09-09T01:36:41.548Z,6.60
2022-09-09T01:37:41.666Z,8.10
2022-09-09T01:38:41.580Z,7.80
2022-09-09T01:39:41.667Z,9.00
2022-09-09T01:40:41.605Z,7.80
2022-09-09T01:41:41.620Z,7.20
2022-09-09T01:42:41.654Z,7.10
2022-09-09T01:43:41.652Z,8.80
2022-09-09T01:44:41.664Z,6.50
2022-09-09T01:45:41.764Z,6.40
2022-09-09T01:46:41.693Z,6.80
2022-09-09T01:47:41.708Z,7.30
2022-09-09T01:48:41.720Z,6.40
2022-09-09T01:49:41.734Z,7.20
2022-09-09T01:50:41.750Z,7.80
2022-09-09T01:51:41.765Z,6.60
2022-09-09T01:52:41.779Z,6.90
2022-09-09T01:53:41.791Z,6.90
2022-09-09T01:54:41.806Z,8.70
2022-09-09T01:55:41.822Z,7.80
2022-09-09T01:56:41.834Z,6.80
2022-09-09T01:57:41.850Z,7.40
2022-09-09T01:58:41.884Z,9.60
2022-09-09T01:59:41.879Z,8.90
2022-09-09T02:00:41.891Z,7.10
2022-09-09T02:01:41.934Z,7.30
2022-09-09T02:02:41.974Z,6.80
2022-09-09T02:03:41.936Z,6.50
2022-09-09T02:04:41.949Z,7.80
2022-09-09T02:05:41.967Z,7.10
2022-09-09T02:06:41.978Z,8.00
2022-09-09T02:07:41.993Z,7.60
2022-09-09T02:08:42.007Z,6.60
2022-09-09T02:09:42.021Z,7.00
2022-09-09T02:10:42.035Z,7.20
2022-09-09T02:11:42.050Z,6.50
2022-09-09T02:12:42.063Z,8.90
2022-09-09T02:13:42.078Z,8.50
2022-09-09T02:14:42.109Z,7.60
2022-09-09T02:15:42.106Z,7.50
2022-09-09T02:16:42.204Z,7.70
2022-09-09T02:17:42.135Z,6.70
2022-09-09T02:18:42.150Z,7.40
2022-09-09T02:19:42.164Z,7.50
2022-09-09T02:20:42.175Z,6.60
2022-09-09T02:21:42.193Z,8.70
2022-09-09T02:22:42.204Z,6.80
2022-09-09T02:23:42.220Z,7.20
2022-09-09T02:24:42.234Z,7.60
2022-09-09T02:25:42.248Z,7.50
2022-09-09T02:26:42.298Z,7.10
2022-09-09T02:27:42.279Z,6.80
2022-09-09T02:28:42.290Z,8.70
2022-09-09T02:29:42.308Z,7.00
2022-09-09T02:30:42.459Z,8.20
2022-09-09T02:31:42.334Z,8.80
2022-09-09T02:32:42.349Z,7.40
2022-09-09T02:33:42.414Z,8.20
2022-09-09T02:34:42.375Z,9.00
2022-09-09T02:35:42.390Z,7.30
2022-09-09T02:36:42.406Z,7.70
2022-09-09T02:37:42.417Z,7.10
2022-09-09T02:38:42.435Z,7.80
2022-09-09T02:39:42.486Z,7.50
2022-09-09T02:40:42.460Z,7.10
2022-09-09T02:41:42.476Z,9.40
2022-09-09T02:42:42.489Z,7.00
2022-09-09T02:43:42.504Z,8.20
2022-09-09T02:44:42.517Z,8.00
2022-09-09T02:45:42.564Z,7.90
2022-09-09T02:46:42.567Z,8.80
2022-09-09T02:47:42.560Z,7.30
2022-09-09T02:48:42.573Z,8.20
2022-09-09T02:49:42.589Z,9.50
2022-09-09T02:50:42.605Z,8.10
2022-09-09T02:51:42.619Z,10.60
2022-09-09T02:52:42.631Z,10.10
2022-09-09T02:53:42.647Z,8.10
2022-09-09T02:54:42.660Z,7.70
2022-09-09T02:55:42.673Z,9.50
2022-09-09T02:56:42.689Z,7.10
2022-09-09T02:57:42.703Z,8.10
2022-09-09T02:58:42.715Z,10.10
2022-09-09T02:59:42.735Z,8.80
2022-09-09T03:00:42.779Z,7.90
2022-09-09T03:01:42.758Z,8.60
2022-09-09T03:02:42.813Z,8.10
2022-09-09T03:03:42.787Z,9.30
2022-09-09T03:04:42.802Z,8.70
2022-09-09T03:05:44.109Z,8.00
2022-09-09T03:06:42.830Z,7.60
2022-09-09T03:07:42.844Z,7.70
2022-09-09T03:08:49.188Z,7.30
2022-09-09T03:09:42.873Z,8.70
2022-09-09T03:10:42.887Z,10.60
2022-09-09T03:11:42.904Z,8.60
2022-09-09T03:12:42.915Z,9.00
2022-09-09T03:13:42.931Z,8.30
2022-09-09T03:14:42.944Z,9.30
2022-09-09T03:15:42.958Z,8.20
2022-09-09T03:16:43.043Z,8.50
2022-09-09T03:17:42.987Z,8.90
2022-09-09T03:18:43.105Z,8.90
2022-09-09T03:19:43.014Z,9.70
2022-09-09T03:20:43.042Z,9.10
2022-09-09T03:21:43.044Z,8.50
2022-09-09T03:22:43.058Z,8.90
2022-09-09T03:23:43.072Z,8.90
2022-09-09T03:24:43.087Z,9.60
2022-09-09T03:25:43.100Z,8.60
2022-09-09T03:26:43.114Z,9.10
2022-09-09T03:27:43.129Z,9.00
2022-09-09T03:28:43.144Z,8.30
2022-09-09T03:29:43.157Z,9.50
2022-09-09T03:30:43.170Z,9.40
2022-09-09T03:31:43.253Z,8.90
2022-09-09T03:32:47.099Z,8.60
2022-09-09T03:33:43.214Z,8.10
2022-09-09T03:34:43.250Z,8.20
2022-09-09T03:35:43.243Z,9.70
2022-09-09T03:36:43.254Z,9.30
2022-09-09T03:37:43.274Z,9.30
2022-09-09T03:38:43.285Z,9.90
2022-09-09T03:39:43.317Z,9.10
2022-09-09T03:40:43.311Z,10.20
2022-09-09T03:41:43.329Z,10.10
2022-09-09T03:42:43.340Z,11.80
2022-09-09T03:43:43.357Z,11.10
2022-09-09T03:44:43.367Z,11.00
2022-09-09T03:45:43.476Z,10.00
2022-09-09T03:46:43.398Z,10.70
2022-09-09T03:47:43.413Z,9.00
2022-09-09T03:48:43.427Z,9.90
2022-09-09T03:49:43.437Z,9.20
2022-09-09T03:50:43.470Z,10.70
2022-09-09T03:51:43.472Z,10.60
2022-09-09T03:52:43.485Z,10.40
2022-09-09T03:53:43.496Z,10.70
2022-09-09T03:54:43.510Z,11.00
2022-09-09T03:55:43.523Z,10.50
2022-09-09T03:56:43.537Z,9.10
2022-09-09T03:57:43.554Z,9.40
2022-09-09T03:58:43.567Z,10.80
2022-09-09T03:59:43.581Z,9.80
2022-09-09T04:00:43.623Z,11.00
2022-09-09T04:01:43.642Z,10.20
2022-09-09T04:02:43.621Z,11.60
2022-09-09T04:03:43.650Z,10.10
2022-09-09T04:04:43.650Z,11.60
2022-09-09T04:05:43.664Z,12.50
2022-09-09T04:06:43.698Z,9.20
2022-09-09T04:07:43.694Z,10.40
2022-09-09T04:08:43.707Z,9.70
2022-09-09T04:09:43.741Z,10.40
2022-09-09T04:10:43.735Z,12.40
2022-09-09T04:11:43.749Z,9.70
2022-09-09T04:12:47.698Z,11.80
2022-09-09T04:13:43.778Z,9.80
2022-09-09T04:14:43.790Z,10.20
2022-09-09T04:15:43.805Z,10.90
2022-09-09T04:16:43.873Z,11.10
2022-09-09T04:17:43.835Z,11.10
2022-09-09T04:18:43.847Z,10.80
2022-09-09T04:19:43.862Z,9.80
2022-09-09T04:20:43.876Z,10.70
2022-09-09T04:21:43.890Z,10.80
2022-09-09T04:22:43.951Z,9.60
2022-09-09T04:23:43.918Z,10.80
2022-09-09T04:24:48.560Z,10.70
2022-09-09T04:25:43.947Z,9.90
2022-09-09T04:26:43.959Z,10.90
2022-09-09T04:27:43.974Z,10.10
2022-09-09T04:28:43.988Z,11.60
2022-09-09T04:29:44.001Z,11.10
2022-09-09T04:30:44.015Z,11.00
2022-09-09T04:31:44.147Z,10.50
2022-09-09T04:32:44.043Z,11.80
2022-09-09T04:33:44.061Z,10.00
2022-09-09T04:34:44.071Z,10.40
2022-09-09T04:35:44.086Z,11.90
2022-09-09T04:36:44.100Z,11.10
2022-09-09T04:37:44.115Z,10.40
2022-09-09T04:38:44.146Z,11.90
2022-09-09T04:39:44.219Z,12.20
2022-09-09T04:40:44.155Z,10.60
2022-09-09T04:41:44.169Z,10.80
2022-09-09T04:42:44.183Z,10.50
2022-09-09T04:43:44.197Z,10.30
2022-09-09T04:44:44.212Z,10.90
2022-09-09T04:45:44.315Z,10.90
2022-09-09T04:46:44.240Z,11.10
2022-09-09T04:47:44.253Z,11.30
2022-09-09T04:48:44.268Z,10.20
2022-09-09T04:49:44.285Z,10.60
2022-09-09T04:50:44.296Z,10.40
2022-09-09T04:51:44.312Z,9.70
2022-09-09T04:52:44.324Z,10.00
2022-09-09T04:53:44.340Z,10.60
2022-09-09T04:54:44.372Z,9.60
2022-09-09T04:55:44.366Z,11.00
2022-09-09T04:56:44.386Z,12.10
2022-09-09T04:57:44.396Z,11.70
2022-09-09T04:58:44.408Z,12.10
2022-09-09T04:59:44.422Z,11.50
2022-09-09T05:00:44.495Z,11.40
2022-09-09T05:01:44.590Z,11.00
2022-09-09T05:02:44.475Z,11.20
2022-09-09T05:03:44.478Z,11.10
2022-09-09T05:04:44.493Z,11.40
2022-09-09T05:05:44.506Z,11.10
2022-09-09T05:06:44.519Z,11.40
2022-09-09T05:07:44.535Z,12.10
2022-09-09T05:08:44.545Z,11.10
2022-09-09T05:09:44.561Z,10.90
2022-09-09T05:10:44.597Z,11.20
2022-09-09T05:11:44.588Z,11.00
2022-09-09T05:12:44.603Z,13.00
2022-09-09T05:13:44.619Z,12.80
2022-09-09T05:14:44.634Z,11.70
2022-09-09T05:15:44.645Z,12.50
2022-09-09T05:16:44.695Z,11.50
2022-09-09T05:17:44.672Z,11.80
2022-09-09T05:18:44.689Z,12.30
2022-09-09T05:19:44.701Z,11.90
2022-09-09T05:20:44.715Z,13.10
2022-09-09T05:21:44.733Z,13.00
2022-09-09T05:22:44.744Z,12.50
2022-09-09T05:23:44.757Z,11.90
2022-09-09T05:24:44.771Z,13.90
2022-09-09T05:25:44.785Z,11.80
2022-09-09T05:26:44.818Z,12.20
2022-09-09T05:27:44.815Z,11.60
2022-09-09T05:28:44.828Z,11.90
2022-09-09T05:29:44.842Z,11.30
2022-09-09T05:30:44.856Z,12.20
2022-09-09T05:31:44.990Z,10.80
2022-09-09T05:32:44.882Z,11.90
2022-09-09T05:33:44.894Z,13.50
2022-09-09T05:34:44.910Z,11.80
2022-09-09T05:35:44.927Z,10.80
2022-09-09T05:36:44.937Z,12.40
2022-09-09T05:37:44.951Z,11.60
2022-09-09T05:38:44.966Z,12.70
2022-09-09T05:39:45.038Z,11.50
2022-09-09T05:40:44.992Z,12.30
2022-09-09T05:41:45.071Z,11.00
2022-09-09T05:42:45.039Z,12.00
2022-09-09T05:43:45.037Z,12.00
2022-09-09T05:44:45.051Z,11.90
2022-09-09T05:45:45.064Z,12.50
2022-09-09T05:46:45.202Z,11.60
2022-09-09T05:47:45.095Z,11.20
2022-09-09T05:48:45.105Z,12.00
2022-09-09T05:49:45.127Z,12.30
2022-09-09T05:50:45.135Z,11.30
2022-09-09T05:51:45.147Z,11.80
2022-09-09T05:52:45.162Z,12.30
2022-09-09T05:53:45.175Z,11.70
2022-09-09T05:54:45.189Z,12.50
2022-09-09T05:55:45.204Z,12.70
2022-09-09T05:56:47.822Z,12.30
2022-09-09T05:57:45.232Z,12.00
2022-09-09T05:58:45.263Z,12.30
2022-09-09T05:59:45.262Z,12.70
2022-09-09T06:00:45.272Z,12.20
2022-09-09T06:01:45.381Z,12.80
2022-09-09T06:02:45.426Z,13.00
2022-09-09T06:03:45.317Z,12.10
2022-09-09T06:04:45.327Z,12.00
2022-09-09T06:05:45.342Z,11.60
2022-09-09T06:06:45.357Z,12.10
2022-09-09T06:07:45.370Z,10.30
2022-09-09T06:08:45.382Z,12.20
2022-09-09T06:09:45.399Z,12.70
2022-09-09T06:10:45.412Z,12.10
2022-09-09T06:11:45.425Z,11.50
2022-09-09T06:12:45.439Z,12.00
2022-09-09T06:13:45.453Z,12.50
2022-09-09T06:14:46.551Z,11.60
2022-09-09T06:15:45.481Z,11.20
2022-09-09T06:16:45.564Z,13.10
2022-09-09T06:17:45.508Z,12.20
2022-09-09T06:18:45.522Z,11.90
2022-09-09T06:19:45.537Z,11.80
2022-09-09T06:20:45.550Z,11.90
2022-09-09T06:21:45.563Z,11.10
2022-09-09T06:22:45.581Z,11.90
2022-09-09T06:23:45.599Z,12.70
2022-09-09T06:24:45.606Z,12.80
2022-09-09T06:25:45.619Z,12.30
2022-09-09T06:26:45.633Z,12.40
2022-09-09T06:27:45.648Z,12.50
2022-09-09T06:28:45.661Z,13.00
2022-09-09T06:29:45.674Z,13.00
2022-09-09T06:30:45.708Z,12.60
2022-09-09T06:31:45.750Z,11.30
2022-09-09T06:32:45.716Z,12.30
2022-09-09T06:33:45.731Z,12.00
2022-09-09T06:34:45.744Z,13.90
2022-09-09T06:35:45.758Z,11.90
2022-09-09T06:36:45.770Z,11.80
2022-09-09T06:37:45.785Z,12.80
2022-09-09T06:38:45.799Z,11.90
2022-09-09T06:39:45.851Z,11.90
2022-09-09T06:40:45.827Z,11.30
2022-09-09T06:41:45.840Z,11.90
2022-09-09T06:42:45.853Z,11.80
2022-09-09T06:43:45.870Z,13.80
2022-09-09T06:44:45.880Z,13.30
2022-09-09T06:45:45.897Z,13.10
2022-09-09T06:46:45.976Z,13.00
2022-09-09T06:47:45.926Z,12.00
2022-09-09T06:48:45.936Z,13.10
2022-09-09T06:49:48.334Z,11.30
2022-09-09T06:50:45.963Z,13.10
2022-09-09T06:51:45.980Z,12.40
2022-09-09T06:52:45.994Z,13.30
2022-09-09T06:53:46.008Z,12.60
2022-09-09T06:54:46.019Z,13.00
2022-09-09T06:55:46.036Z,11.80
2022-09-09T06:56:46.048Z,13.40
2022-09-09T06:57:46.063Z,13.30
2022-09-09T06:58:46.082Z,13.30
2022-09-09T06:59:46.092Z,13.40
2022-09-09T07:00:46.131Z,13.00
2022-09-09T07:01:46.189Z,11.80
2022-09-09T07:02:46.153Z,13.40
2022-09-09T07:03:46.149Z,12.60
2022-09-09T07:04:46.160Z,12.00
2022-09-09T07:05:46.172Z,12.80
2022-09-09T07:06:46.200Z,12.60
2022-09-09T07:07:46.200Z,12.20
2022-09-09T07:08:55.784Z,13.60
2022-09-09T07:09:46.227Z,11.30
2022-09-09T07:10:46.241Z,12.90
2022-09-09T07:11:46.253Z,13.30
2022-09-09T07:12:46.271Z,12.00
2022-09-09T07:13:46.281Z,12.60
2022-09-09T07:14:46.296Z,12.30
2022-09-09T07:15:46.362Z,12.00
2022-09-09T07:16:46.325Z,11.20
2022-09-09T07:17:46.338Z,13.20
2022-09-09T07:18:46.368Z,12.00
2022-09-09T07:19:46.366Z,12.20
2022-09-09T07:20:46.377Z,13.70
2022-09-09T07:21:46.392Z,13.10
2022-09-09T07:22:46.406Z,12.50
2022-09-09T07:23:46.419Z,12.60
2022-09-09T07:24:46.433Z,13.80
2022-09-09T07:25:46.447Z,12.60
2022-09-09T07:26:46.462Z,12.70
2022-09-09T07:27:46.477Z,12.70
2022-09-09T07:28:46.489Z,14.20
2022-09-09T07:29:46.504Z,14.30
2022-09-09T07:30:46.516Z,12.40
2022-09-09T07:31:46.599Z,13.70
2022-09-09T07:32:46.544Z,12.20
2022-09-09T07:33:46.557Z,13.80
2022-09-09T07:34:46.589Z,14.30
2022-09-09T07:35:46.586Z,12.60
2022-09-09T07:36:46.600Z,12.90
2022-09-09T07:37:50.726Z,12.40
2022-09-09T07:38:46.627Z,11.90
2022-09-09T07:39:46.727Z,13.50
2022-09-09T07:40:46.652Z,12.70
2022-09-09T07:41:46.669Z,12.10
2022-09-09T07:42:46.682Z,12.50
2022-09-09T07:43:46.694Z,13.80
2022-09-09T07:44:46.709Z,13.70
2022-09-09T07:45:46.739Z,13.80
2022-09-09T07:46:46.900Z,12.70
2022-09-09T07:47:46.752Z,12.60
2022-09-09T07:48:46.766Z,14.10
2022-09-09T07:49:46.779Z,12.70
2022-09-09T07:50:46.810Z,13.30
2022-09-09T07:51:46.809Z,14.00
2022-09-09T07:52:46.818Z,13.50
2022-09-09T07:53:46.833Z,13.70
2022-09-09T07:54:46.847Z,13.60
2022-09-09T07:55:46.860Z,13.00
2022-09-09T07:56:46.873Z,12.80
2022-09-09T07:57:46.887Z,12.30
2022-09-09T07:58:46.900Z,12.50
2022-09-09T07:59:46.915Z,12.60
2022-09-09T08:00:46.928Z,12.60
2022-09-09T08:01:47.002Z,12.30
2022-09-09T08:02:46.984Z,12.50
2022-09-09T08:03:46.973Z,13.90
2022-09-09T08:04:46.983Z,13.30
2022-09-09T08:05:46.998Z,13.90
2022-09-09T08:06:47.029Z,12.90
2022-09-09T08:07:47.024Z,14.20
2022-09-09T08:08:47.039Z,13.60
2022-09-09T08:09:47.052Z,14.10
2022-09-09T08:10:47.065Z,14.10
2022-09-09T08:11:47.080Z,14.10
2022-09-09T08:13:01.475Z,13.00
2022-09-09T08:13:50.847Z,16.30
2022-09-09T08:14:47.122Z,13.40
2022-09-09T08:15:47.162Z,15.40
2022-09-09T08:16:47.148Z,12.50
2022-09-09T08:17:47.163Z,14.60
2022-09-09T08:18:47.176Z,12.60
2022-09-09T08:19:47.191Z,15.50
2022-09-09T08:20:47.203Z,14.80
2022-09-09T08:21:47.215Z,15.20
2022-09-09T08:22:47.253Z,14.80
2022-09-09T08:23:47.245Z,15.60
2022-09-09T08:24:47.257Z,14.30
2022-09-09T08:25:47.272Z,14.30
2022-09-09T08:26:47.285Z,13.50
2022-09-09T08:27:47.298Z,14.60
2022-09-09T08:28:47.312Z,14.20
2022-09-09T08:29:47.325Z,14.00
2022-09-09T08:30:47.388Z,14.70
2022-09-09T08:31:47.354Z,14.00
2022-09-09T08:32:50.788Z,15.60
2022-09-09T08:33:47.382Z,13.50
2022-09-09T08:34:47.396Z,15.70
2022-09-09T08:35:49.672Z,14.30
2022-09-09T08:36:47.421Z,15.50
2022-09-09T08:37:51.460Z,18.30
2022-09-09T08:38:47.468Z,13.50
2022-09-09T08:39:47.540Z,14.90
2022-09-09T08:40:47.477Z,14.40
2022-09-09T08:41:47.493Z,13.60
2022-09-09T08:42:47.504Z,13.70
2022-09-09T08:43:47.518Z,15.10
2022-09-09T08:44:49.020Z,16.20
2022-09-09T08:45:47.545Z,15.40
2022-09-09T08:46:47.614Z,15.40
2022-09-09T08:47:47.574Z,15.80
2022-09-09T08:48:47.587Z,16.80
2022-09-09T08:49:47.600Z,14.50
2022-09-09T08:50:47.612Z,14.70
2022-09-09T08:51:47.632Z,17.10
2022-09-09T08:52:47.640Z,16.50
2022-09-09T08:53:47.653Z,14.70
2022-09-09T08:54:52.487Z,16.70
2022-09-09T08:55:47.682Z,15.60
2022-09-09T08:56:47.694Z,15.30
2022-09-09T08:57:47.709Z,15.10
2022-09-09T08:58:47.726Z,15.00
2022-09-09T08:59:47.753Z,16.90
2022-09-09T09:00:47.750Z,14.50
2022-09-09T09:01:47.814Z,15.40
2022-09-09T09:02:47.778Z,15.40
2022-09-09T09:03:47.791Z,15.80
2022-09-09T09:04:47.880Z,18.50
2022-09-09T09:05:47.819Z,16.90
2022-09-09T09:06:47.836Z,16.60
2022-09-09T09:07:47.845Z,17.10
2022-09-09T09:08:47.859Z,16.60
2022-09-09T09:09:47.872Z,16.70
2022-09-09T09:10:47.905Z,17.70
2022-09-09T09:11:47.900Z,16.80
2022-09-09T09:12:47.914Z,16.80
2022-09-09T09:13:47.927Z,15.40
2022-09-09T09:14:47.939Z,16.40
2022-09-09T09:15:47.992Z,16.00
2022-09-09T09:16:47.967Z,16.90
2022-09-09T09:17:47.987Z,14.80
2022-09-09T09:18:47.996Z,17.80
2022-09-09T09:19:48.010Z,16.10
2022-09-09T09:20:48.021Z,17.20
2022-09-09T09:21:48.036Z,17.70
2022-09-09T09:22:48.051Z,16.10
2022-09-09T09:23:48.065Z,15.80
2022-09-09T09:24:48.078Z,16.40
2022-09-09T09:25:48.091Z,16.20
2022-09-09T09:26:48.121Z,15.80
2022-09-09T09:27:48.120Z,16.50
2022-09-09T09:28:48.131Z,15.80
2022-09-09T09:30:17.567Z,16.40
2022-09-09T09:30:48.183Z,17.80
2022-09-09T09:31:48.173Z,15.60
2022-09-09T09:32:48.185Z,18.20
2022-09-09T09:33:48.211Z,15.90
2022-09-09T09:34:48.213Z,16.10
2022-09-09T09:35:48.226Z,17.80
2022-09-09T09:36:48.238Z,15.80
2022-09-09T09:40:04.110Z,16.80
2022-09-09T09:40:48.295Z,18.20
2022-09-09T09:41:48.308Z,17.20
2022-09-09T09:42:48.344Z,16.70
2022-09-09T09:43:48.336Z,16.90
2022-09-09T09:44:48.350Z,16.20
2022-09-09T09:46:07.000Z,15.70
2022-09-09T09:46:48.397Z,19.00
2022-09-09T09:47:48.391Z,17.20
2022-09-09T09:48:48.402Z,16.50
2022-09-09T09:49:48.419Z,16.30
2022-09-09T09:50:48.431Z,16.60
2022-09-09T09:51:48.444Z,18.10
2022-09-09T09:52:48.458Z,17.90
2022-09-09T09:53:48.474Z,16.40
2022-09-09T09:54:48.486Z,15.00
2022-09-09T09:55:48.503Z,17.70
2022-09-09T09:56:48.550Z,15.40
2022-09-09T09:57:48.526Z,16.50
2022-09-09T09:58:48.556Z,17.80
2022-09-09T09:59:48.554Z,16.50
2022-09-09T10:00:48.569Z,18.20
2022-09-09T10:01:48.646Z,17.40
2022-09-09T10:02:48.596Z,17.80
2022-09-09T10:03:48.616Z,18.40
2022-09-09T10:04:48.714Z,18.10
2022-09-09T10:05:48.636Z,17.50
2022-09-09T10:06:48.648Z,15.90
2022-09-09T10:07:48.663Z,17.90
2022-09-09T10:08:48.674Z,16.90
2022-09-09T10:09:48.691Z,19.70
2022-09-09T10:10:48.703Z,17.40
2022-09-09T10:11:48.718Z,16.90
2022-09-09T10:12:48.764Z,16.40
2022-09-09T10:13:48.743Z,16.40
2022-09-09T10:14:48.774Z,16.50
2022-09-09T10:15:48.918Z,17.60
2022-09-09T10:16:48.786Z,18.10
2022-09-09T10:17:48.799Z,16.70
2022-09-09T10:18:48.813Z,16.70
2022-09-09T10:19:48.825Z,17.80
2022-09-09T10:20:48.840Z,17.30
2022-09-09T10:21:48.854Z,15.90
2022-09-09T10:22:49.069Z,17.50
2022-09-09T10:23:48.881Z,18.70
2022-09-09T10:24:48.895Z,16.80
2022-09-09T10:25:48.909Z,18.00
2022-09-09T10:26:48.923Z,17.80
2022-09-09T10:27:48.935Z,17.40
2022-09-09T10:28:48.986Z,17.00
2022-09-09T10:29:48.965Z,18.00
2022-09-09T10:30:49.067Z,19.80
2022-09-09T10:31:48.990Z,16.60
2022-09-09T10:32:49.004Z,17.50
2022-09-09T10:33:49.018Z,19.80
2022-09-09T10:34:49.032Z,16.30
2022-09-09T10:35:49.042Z,17.30
2022-09-09T10:36:49.056Z,19.20
2022-09-09T10:37:49.070Z,15.50
2022-09-09T10:38:49.084Z,18.60
2022-09-09T10:39:49.148Z,16.90
2022-09-09T10:40:49.158Z,17.60
2022-09-09T10:41:49.125Z,17.10
2022-09-09T10:42:49.138Z,18.50
2022-09-09T10:43:49.153Z,17.20
2022-09-09T10:44:49.167Z,17.90
2022-09-09T10:45:49.307Z,17.10
2022-09-09T10:46:49.210Z,19.00
2022-09-09T10:47:49.207Z,17.10
2022-09-09T10:48:49.223Z,18.30
2022-09-09T10:49:49.235Z,19.20
2022-09-09T10:51:05.443Z,18.40
2022-09-09T10:51:49.263Z,18.10
2022-09-09T10:52:49.275Z,18.10
2022-09-09T10:53:49.289Z,16.60
2022-09-09T10:54:49.301Z,17.60
2022-09-09T10:55:49.317Z,18.80
2022-09-09T10:56:49.331Z,18.60
2022-09-09T10:57:49.341Z,17.50
2022-09-09T10:58:49.356Z,19.50
2022-09-09T10:59:49.368Z,17.60
2022-09-09T11:00:49.383Z,18.80
2022-09-09T11:01:49.456Z,19.20
2022-09-09T11:02:49.543Z,18.30
2022-09-09T11:03:49.423Z,19.90
2022-09-09T11:04:49.436Z,18.40
2022-09-09T11:05:49.451Z,19.40
2022-09-09T11:06:49.549Z,19.10
2022-09-09T11:07:49.478Z,19.40
2022-09-09T11:08:51.672Z,17.70
2022-09-09T11:09:49.505Z,18.50
2022-09-09T11:10:49.519Z,18.60
2022-09-09T11:11:49.531Z,18.00
2022-09-09T11:12:49.547Z,17.30
2022-09-09T11:13:49.564Z,18.00
2022-09-09T11:14:49.575Z,19.10
2022-09-09T11:15:49.588Z,22.00
2022-09-09T11:16:49.673Z,17.60
2022-09-09T11:17:49.614Z,18.90
2022-09-09T11:18:49.653Z,20.20
2022-09-09T11:19:49.641Z,19.10
2022-09-09T11:20:49.655Z,19.40
2022-09-09T11:21:49.668Z,17.30
2022-09-09T11:22:49.738Z,19.70
2022-09-09T11:23:49.696Z,20.60
2022-09-09T11:24:49.710Z,20.70
2022-09-09T11:25:49.745Z,19.40
2022-09-09T11:26:49.736Z,21.70
2022-09-09T11:27:49.758Z,19.70
2022-09-09T11:28:49.763Z,19.30
2022-09-09T11:29:49.781Z,18.70
2022-09-09T11:30:56.627Z,17.70
2022-09-09T11:31:49.926Z,17.50
2022-09-09T11:32:49.819Z,19.40
2022-09-09T11:33:49.834Z,19.20
2022-09-09T11:34:49.865Z,19.40
2022-09-09T11:35:49.860Z,19.80
2022-09-09T11:36:49.918Z,19.20
2022-09-09T11:37:49.887Z,20.00
2022-09-09T11:38:49.900Z,20.30
2022-09-09T11:39:49.947Z,19.60
2022-09-09T11:40:49.925Z,22.80
2022-09-09T11:41:49.941Z,20.80
2022-09-09T11:42:49.955Z,20.30
2022-09-09T11:43:49.969Z,19.60
2022-09-09T11:44:49.981Z,19.60
2022-09-09T11:45:50.034Z,18.30
2022-09-09T11:46:50.010Z,18.10
2022-09-09T11:47:50.025Z,19.20
2022-09-09T11:48:50.036Z,17.40
2022-09-09T11:49:50.050Z,18.40
2022-09-09T11:50:50.107Z,18.40
2022-09-09T11:51:50.078Z,22.60
2022-09-09T11:52:50.093Z,18.70
2022-09-09T11:53:50.106Z,20.10
2022-09-09T11:54:50.117Z,19.00
2022-09-09T11:55:50.137Z,18.10
2022-09-09T11:56:50.148Z,20.30
2022-09-09T11:57:50.160Z,20.70
2022-09-09T11:58:50.531Z,18.80
2022-09-09T11:59:50.189Z,18.90
2022-09-09T12:00:50.200Z,18.30
2022-09-09T12:01:50.215Z,20.40
2022-09-09T12:02:50.227Z,19.70
2022-09-09T12:03:50.268Z,20.10
2022-09-09T12:04:50.278Z,20.70
2022-09-09T12:05:50.271Z,18.80
2022-09-09T12:06:50.300Z,18.50
2022-09-09T12:07:50.298Z,21.90
2022-09-09T12:08:50.310Z,18.70
2022-09-09T12:09:50.326Z,18.20
2022-09-09T12:10:50.338Z,19.90
2022-09-09T12:11:50.352Z,20.30
2022-09-09T12:12:50.365Z,20.00
2022-09-09T12:13:50.377Z,20.90
2022-09-09T12:14:50.392Z,18.90
2022-09-09T12:15:50.603Z,19.30
2022-09-09T12:16:50.455Z,19.10
2022-09-09T12:17:50.438Z,20.50
2022-09-09T12:18:50.502Z,19.50
2022-09-09T12:19:50.460Z,18.70
2022-09-09T12:20:50.480Z,21.90
2022-09-09T12:21:50.489Z,19.30
2022-09-09T12:22:50.521Z,20.30
2022-09-09T12:23:50.516Z,19.60
2022-09-09T12:24:50.529Z,19.40
2022-09-09T12:25:50.545Z,18.80
2022-09-09T12:26:50.559Z,18.30
2022-09-09T12:27:50.571Z,19.40
2022-09-09T12:28:50.586Z,19.40
2022-09-09T12:29:50.600Z,19.80
2022-09-09T12:30:50.626Z,21.00
2022-09-09T12:31:50.627Z,18.40
2022-09-09T12:32:50.639Z,18.10
2022-09-09T12:33:50.654Z,19.00
2022-09-09T12:34:50.667Z,19.50
2022-09-09T12:35:50.682Z,18.20
2022-09-09T12:36:53.748Z,18.00
2022-09-09T12:37:50.710Z,19.10
2022-09-09T12:38:50.739Z,19.90
2022-09-09T12:39:50.769Z,19.60
2022-09-09T12:40:50.750Z,19.90
2022-09-09T12:41:50.765Z,19.90
2022-09-09T12:42:50.776Z,16.60
2022-09-09T12:43:50.797Z,21.10
2022-09-09T12:44:50.804Z,20.30
2022-09-09T12:45:50.847Z,18.60
2022-09-09T12:46:50.837Z,18.10
2022-09-09T12:47:50.846Z,18.70
2022-09-09T12:48:50.861Z,18.90
2022-09-09T12:49:50.873Z,19.60
2022-09-09T12:50:50.890Z,18.70
2022-09-09T12:51:50.902Z,19.50
2022-09-09T12:52:50.916Z,19.30
2022-09-09T12:53:50.930Z,19.50
2022-09-09T12:54:50.963Z,20.10
2022-09-09T12:55:50.959Z,19.30
2022-09-09T12:56:50.973Z,20.80
2022-09-09T12:57:50.989Z,21.20
2022-09-09T12:58:50.999Z,19.30
2022-09-09T12:59:51.013Z,18.00
2022-09-09T13:00:51.047Z,18.60
2022-09-09T13:01:51.200Z,17.30
2022-09-09T13:02:51.057Z,19.10